Time;durP1;ratioP1;P1;durP2;ratioP2;P2;SDS_P1;SDS_P2;PMS_P1;PMS_P2;Temp;Humidity;BMP_temperature;BMP_pressure;BME280_temperature;BME280_humidity;BME280_pressure;Samples;Min_cycle;Max_cycle;Signal;HPM_P1;HPM_P2
2022/03/19 00:01:52;;;;;;;64.97;52.87;;;8.90;99.90;;;;;;10372478;28;20600;-84
2022/03/19 00:06:54;;;;;;;60.13;50.17;;;8.90;99.90;;;;;;10353435;28;20226;-84
2022/03/19 00:11:58;;;;;;;63.03;51.00;;;9.00;99.90;;;;;;10353073;28;20233;-83
2022/03/19 00:17:00;;;;;;;62.87;51.87;;;8.90;99.90;;;;;;10341158;28;20321;-84
2022/03/19 00:22:02;;;;;;;62.30;51.73;;;9.00;99.90;;;;;;10357673;28;20223;-84
2022/03/19 00:27:06;;;;;;;59.20;50.13;;;8.90;99.90;;;;;;10373245;28;20309;-83
2022/03/19 00:32:09;;;;;;;58.27;49.70;;;9.00;99.90;;;;;;10348167;28;20291;-83
2022/03/19 00:37:11;;;;;;;58.37;49.67;;;8.90;99.90;;;;;;10370599;28;20468;-85
2022/03/19 00:42:14;;;;;;;61.23;50.37;;;9.00;99.90;;;;;;10386527;28;20241;-86
2022/03/19 00:47:17;;;;;;;59.20;50.70;;;8.90;99.90;;;;;;10381976;28;20305;-83
2022/03/19 00:52:19;;;;;;;57.83;48.97;;;8.90;99.90;;;;;;10370239;28;20190;-83
2022/03/19 00:57:23;;;;;;;58.97;50.40;;;8.80;99.90;;;;;;10365473;28;20226;-83
2022/03/19 01:02:26;;;;;;;57.60;48.80;;;8.80;99.90;;;;;;10345259;28;20254;-82
2022/03/19 01:07:28;;;;;;;59.17;49.60;;;8.70;99.90;;;;;;10339395;28;20223;-82
2022/03/19 01:12:31;;;;;;;59.90;50.20;;;8.70;99.90;;;;;;10351326;28;20202;-82
2022/03/19 01:17:33;;;;;;;55.73;49.20;;;8.70;99.90;;;;;;10370186;28;20219;-84
2022/03/19 01:22:35;;;;;;;54.77;47.80;;;8.70;99.90;;;;;;10357395;28;20210;-84
2022/03/19 01:27:41;;;;;;;52.43;45.03;;;8.70;99.90;;;;;;10354949;28;20707;-84
2022/03/19 01:32:43;;;;;;;54.03;46.50;;;8.70;99.90;;;;;;10370078;28;20190;-83
2022/03/19 01:37:46;;;;;;;56.80;47.67;;;8.70;99.90;;;;;;10399772;28;20227;-84
2022/03/19 01:42:51;;;;;;;54.40;46.77;;;8.70;99.90;;;;;;10375192;28;20249;-84
2022/03/19 01:47:55;;;;;;;52.87;44.70;;;8.70;99.90;;;;;;10391507;28;20575;-84
2022/03/19 01:52:57;;;;;;;53.13;45.00;;;8.70;99.90;;;;;;10402139;28;20213;-82
2022/03/19 01:58:03;;;;;;;51.13;45.60;;;8.70;99.90;;;;;;10375206;28;20234;-82
2022/03/19 02:03:07;;;;;;;61.20;46.70;;;8.60;99.90;;;;;;10359573;28;20253;-83
2022/03/19 02:08:09;;;;;;;54.30;45.77;;;8.60;99.90;;;;;;10376340;28;20683;-82
2022/03/19 02:13:13;;;;;;;53.87;47.70;;;8.60;99.90;;;;;;10338806;28;20210;-82
2022/03/19 02:18:15;;;;;;;54.63;46.30;;;8.60;99.90;;;;;;10370531;28;20213;-85
2022/03/19 02:28:42;;;;;;;53.77;47.00;;;8.60;99.90;;;;;;10350952;28;20203;-82
2022/03/19 02:33:44;;;;;;;49.00;43.57;;;8.60;99.90;;;;;;10351486;28;20289;-82
2022/03/19 02:38:51;;;;;;;54.57;47.07;;;8.60;99.90;;;;;;10394075;28;20198;-81
2022/03/19 02:43:53;;;;;;;53.70;45.17;;;8.60;99.90;;;;;;10352542;28;20272;-82
2022/03/19 02:48:55;;;;;;;54.30;45.90;;;8.50;99.90;;;;;;10335980;28;20724;-83
2022/03/19 02:53:59;;;;;;;51.60;44.57;;;8.50;99.90;;;;;;10331695;28;20288;-83
2022/03/19 02:59:08;;;;;;;53.10;45.47;;;8.40;99.90;;;;;;10354154;28;20226;-82
2022/03/19 03:04:10;;;;;;;50.93;45.10;;;8.40;99.90;;;;;;10334993;28;20223;-82
2022/03/19 03:09:15;;;;;;;52.47;46.17;;;8.40;99.90;;;;;;10354579;28;20205;-82
2022/03/19 03:14:18;;;;;;;52.03;44.50;;;8.30;99.90;;;;;;10348170;28;20237;-82
2022/03/19 03:19:21;;;;;;;49.00;43.70;;;8.30;99.90;;;;;;10346224;28;20233;-83
2022/03/19 03:24:25;;;;;;;52.63;44.37;;;8.30;99.90;;;;;;10391417;28;20226;-84
2022/03/19 03:29:27;;;;;;;56.10;43.90;;;8.30;99.90;;;;;;10355943;28;20202;-84
2022/03/19 03:34:30;;;;;;;59.23;45.07;;;8.30;99.90;;;;;;10350172;28;20290;-86
2022/03/19 03:39:34;;;;;;;53.23;43.60;;;8.30;99.90;;;;;;10349100;28;20229;-85
2022/03/19 03:44:39;;;;;;;51.50;43.50;;;8.20;99.90;;;;;;10392818;28;20271;-86
2022/03/19 03:49:42;;;;;;;51.90;44.57;;;8.20;99.90;;;;;;10368079;28;20237;-85
2022/03/19 03:54:45;;;;;;;50.50;44.20;;;8.20;99.90;;;;;;10358653;28;20233;-85
2022/03/19 03:59:49;;;;;;;50.53;44.00;;;8.10;99.90;;;;;;10351416;28;20203;-84
2022/03/19 04:04:51;;;;;;;51.77;44.00;;;8.00;99.90;;;;;;10362650;28;20248;-83
2022/03/19 04:09:55;;;;;;;57.07;45.53;;;7.90;99.90;;;;;;10377177;28;20222;-84
2022/03/19 04:14:57;;;;;;;52.27;44.53;;;7.90;99.90;;;;;;10369535;28;20222;-86
2022/03/19 04:19:59;;;;;;;50.80;42.40;;;7.90;99.90;;;;;;10381735;28;20262;-85
2022/03/19 04:25:03;;;;;;;50.03;43.43;;;7.90;99.90;;;;;;10370738;28;20237;-85
2022/03/19 04:30:06;;;;;;;49.73;42.63;;;7.90;99.90;;;;;;10383638;28;20731;-84
2022/03/19 04:40:27;;;;;;;52.60;43.87;;;8.00;99.90;;;;;;10363836;28;20787;-84
2022/03/19 04:45:30;;;;;;;50.70;44.23;;;8.00;99.90;;;;;;10363969;28;20226;-84
2022/03/19 04:50:32;;;;;;;52.60;42.73;;;8.00;99.90;;;;;;10382547;28;20261;-85
2022/03/19 04:55:36;;;;;;;46.70;40.17;;;8.00;99.90;;;;;;10361316;28;20246;-85
2022/03/19 05:00:38;;;;;;;49.47;41.00;;;8.00;99.90;;;;;;10368639;28;20268;-86
2022/03/19 05:05:41;;;;;;;50.90;41.40;;;8.00;99.90;;;;;;10364910;28;20238;-84
2022/03/19 05:16:04;;;;;;;45.40;40.13;;;7.90;99.90;;;;;;10397656;28;20215;-84
2022/03/19 05:21:07;;;;;;;50.67;41.20;;;7.90;99.90;;;;;;10372015;28;20207;-86
2022/03/19 05:26:10;;;;;;;49.40;42.03;;;7.90;99.90;;;;;;10383451;28;20222;-83
2022/03/19 05:31:13;;;;;;;50.40;41.87;;;7.90;99.90;;;;;;10429935;28;20626;-84
2022/03/19 05:36:15;;;;;;;46.97;40.20;;;7.80;99.90;;;;;;10370973;28;20238;-84
2022/03/19 05:41:19;;;;;;;49.87;41.70;;;7.80;99.90;;;;;;10352745;28;20903;-84
2022/03/19 05:46:22;;;;;;;46.77;40.70;;;7.80;99.90;;;;;;10403418;28;20235;-82
2022/03/19 05:51:24;;;;;;;45.70;39.00;;;7.80;99.90;;;;;;10368859;28;20566;-84
2022/03/19 05:56:27;;;;;;;45.00;38.00;;;7.80;99.90;;;;;;10381689;28;20234;-82
2022/03/19 06:01:35;;;;;;;46.27;40.23;;;7.80;99.90;;;;;;10392468;28;20190;-83
2022/03/19 06:06:37;;;;;;;48.47;39.80;;;7.80;99.90;;;;;;10396837;28;20233;-82
2022/03/19 06:11:42;;;;;;;43.60;37.60;;;7.90;99.90;;;;;;10413656;28;20207;-84
2022/03/19 06:16:44;;;;;;;50.73;40.57;;;7.90;99.90;;;;;;10390873;28;20309;-84
2022/03/19 06:21:47;;;;;;;45.30;39.97;;;7.90;99.90;;;;;;10378389;28;20202;-84
2022/03/19 06:26:51;;;;;;;50.13;40.50;;;8.00;99.90;;;;;;10415355;28;20253;-82
2022/03/19 06:31:53;;;;;;;46.07;39.80;;;8.00;99.80;;;;;;10399280;28;20232;-86
2022/03/19 06:42:16;;;;;;;51.03;41.60;;;8.00;99.80;;;;;;10420986;28;20554;-83
2022/03/19 06:47:18;;;;;;;50.30;40.30;;;8.00;99.80;;;;;;10367985;28;20230;-83
2022/03/19 06:52:22;;;;;;;49.70;41.00;;;8.10;99.80;;;;;;10359185;28;20194;-83
2022/03/19 06:57:27;;;;;;;49.13;40.00;;;8.10;99.30;;;;;;10354723;28;20285;-84
2022/03/19 07:02:30;;;;;;;47.60;39.17;;;8.20;99.40;;;;;;10390260;28;20207;-83
2022/03/19 07:07:32;;;;;;;47.83;39.70;;;8.20;99.50;;;;;;10393167;28;20221;-84
2022/03/19 07:12:44;;;;;;;49.10;39.27;;;8.30;99.20;;;;;;10376154;28;20191;-85
2022/03/19 07:17:48;;;;;;;46.50;38.33;;;8.30;99.00;;;;;;10369332;28;20226;-82
2022/03/19 07:22:51;;;;;;;46.23;39.00;;;8.40;97.50;;;;;;10390484;28;20221;-81
2022/03/19 07:27:56;;;;;;;47.27;39.50;;;8.50;97.30;;;;;;10362706;28;20217;-81
2022/03/19 07:32:59;;;;;;;46.70;39.73;;;8.50;98.80;;;;;;10378740;28;20226;-82
2022/03/19 07:38:02;;;;;;;41.77;36.97;;;8.50;98.30;;;;;;10376416;28;20222;-82
2022/03/19 07:43:06;;;;;;;43.80;35.93;;;8.60;97.40;;;;;;10352640;28;20238;-81
2022/03/19 07:48:09;;;;;;;42.33;36.00;;;8.60;96.20;;;;;;10351758;28;20769;-81
2022/03/19 07:53:11;;;;;;;40.00;34.23;;;8.70;95.80;;;;;;10358844;28;20198;-84
2022/03/19 07:58:15;;;;;;;40.67;32.53;;;8.80;95.80;;;;;;10398984;28;20230;-81
2022/03/19 08:03:19;;;;;;;37.87;33.77;;;8.90;95.90;;;;;;10369118;28;20292;-82
2022/03/19 08:08:21;;;;;;;38.80;32.40;;;9.00;95.80;;;;;;10367769;28;20252;-81
2022/03/19 08:13:24;;;;;;;37.23;30.97;;;9.10;95.20;;;;;;10358850;28;20623;-83
2022/03/19 08:18:26;;;;;;;35.40;31.60;;;9.30;95.20;;;;;;10386909;28;20242;-83
2022/03/19 08:23:29;;;;;;;33.83;29.77;;;9.50;94.90;;;;;;10376207;28;20242;-83
2022/03/19 08:28:33;;;;;;;33.90;28.13;;;9.60;93.50;;;;;;10373392;28;20279;-83
2022/03/19 08:33:35;;;;;;;33.07;28.90;;;9.70;94.80;;;;;;10359586;28;20664;-83
2022/03/19 08:43:59;;;;;;;28.60;25.30;;;10.00;91.70;;;;;;10398667;28;20258;-85
2022/03/19 08:49:01;;;;;;;29.90;26.70;;;10.10;92.50;;;;;;10367935;28;20218;-85
2022/03/19 08:54:04;;;;;;;27.93;24.93;;;10.20;92.10;;;;;;10403209;28;20259;-83
2022/03/19 08:59:07;;;;;;;30.00;25.23;;;10.40;87.00;;;;;;10487325;23;1175626;-82
2022/03/19 09:04:10;;;;;;;27.53;24.53;;;10.40;90.30;;;;;;10497834;28;20316;-82
2022/03/19 09:09:14;;;;;;;28.03;23.77;;;10.50;90.10;;;;;;10515511;28;20220;-83
2022/03/19 09:14:18;;;;;;;27.77;24.70;;;10.70;87.40;;;;;;10496961;28;20205;-83
2022/03/19 09:19:20;;;;;;;29.37;25.07;;;10.80;85.80;;;;;;10485361;28;20301;-84
2022/03/19 09:24:23;;;;;;;27.00;24.10;;;10.80;87.90;;;;;;10478901;28;20221;-84
2022/03/19 09:29:27;;;;;;;31.60;24.43;;;11.00;89.60;;;;;;10486997;28;20209;-84
2022/03/19 09:34:29;;;;;;;31.40;26.57;;;11.20;88.50;;;;;;10492381;28;20260;-84
2022/03/19 09:39:31;;;;;;;31.43;26.60;;;11.50;86.90;;;;;;10466802;28;20202;-84
2022/03/19 09:44:36;;;;;;;30.53;26.70;;;11.70;85.90;;;;;;10477652;28;20217;-81
2022/03/19 09:49:38;;;;;;;30.00;25.70;;;11.90;83.70;;;;;;10470150;28;20663;-82
2022/03/19 09:54:40;;;;;;;30.60;26.70;;;12.10;85.40;;;;;;10470171;28;20220;-82
2022/03/19 09:59:45;;;;;;;30.60;27.10;;;12.40;84.80;;;;;;10471574;28;20319;-82
2022/03/19 10:04:51;;;;;;;28.93;25.47;;;12.60;82.60;;;;;;10460404;28;20656;-82
2022/03/19 10:09:56;;;;;;;30.30;26.47;;;12.70;80.90;;;;;;10455894;28;20653;-82
2022/03/19 10:15:00;;;;;;;31.03;27.73;;;12.90;80.50;;;;;;10464754;28;20210;-81
2022/03/19 10:20:09;;;;;;;33.10;25.93;;;12.80;78.70;;;;;;10455556;28;20200;-80
2022/03/19 10:25:14;;;;;;;33.17;27.83;;;12.60;78.80;;;;;;10475126;28;20653;-79
2022/03/19 10:30:20;;;;;;;29.73;26.60;;;12.50;78.60;;;;;;10471745;28;20209;-80
2022/03/19 10:35:27;;;;;;;28.77;25.07;;;12.30;77.80;;;;;;10452160;28;20283;-80
2022/03/19 10:40:41;;;;;;;32.00;27.97;;;12.20;80.10;;;;;;10448344;28;20189;-80
2022/03/19 10:45:47;;;;;;;31.37;28.00;;;12.10;79.70;;;;;;10457742;28;20637;-80
2022/03/19 10:50:50;;;;;;;34.57;29.80;;;12.10;78.80;;;;;;10469128;28;20201;-80
2022/03/19 10:55:53;;;;;;;31.83;28.37;;;12.10;78.90;;;;;;10466553;28;20652;-80
2022/03/19 11:00:58;;;;;;;34.83;30.27;;;12.10;79.50;;;;;;10485405;28;20295;-80
2022/03/19 11:06:04;;;;;;;33.50;28.50;;;12.30;84.80;;;;;;10492684;28;20220;-81
2022/03/19 11:11:11;;;;;;;35.60;29.73;;;12.40;82.60;;;;;;10496262;28;20200;-81
2022/03/19 11:16:15;;;;;;;30.10;24.97;;;12.60;80.60;;;;;;10489067;28;20307;-81
2022/03/19 11:21:18;;;;;;;31.83;27.20;;;12.70;81.80;;;;;;10498077;28;20254;-81
2022/03/19 11:26:25;;;;;;;29.97;25.67;;;12.70;78.10;;;;;;10482087;28;20227;-81
2022/03/19 11:31:30;;;;;;;23.57;21.00;;;12.60;74.90;;;;;;10476613;28;20200;-81
2022/03/19 11:36:52;;;;;;;20.07;17.93;;;12.60;76.50;;;;;;10491535;28;20231;-81
2022/03/19 11:41:54;;;;;;;21.67;17.37;;;12.50;77.50;;;;;;10495870;28;20197;-82
2022/03/19 11:46:59;;;;;;;18.33;16.20;;;12.50;75.40;;;;;;10471587;28;20331;-82
2022/03/19 11:52:01;;;;;;;16.77;13.80;;;12.50;74.10;;;;;;10479492;28;20227;-82
2022/03/19 11:57:08;;;;;;;17.43;14.70;;;12.40;72.50;;;;;;10488909;28;20227;-82
2022/03/19 12:02:14;;;;;;;20.20;15.70;;;12.30;75.20;;;;;;10500656;28;20235;-82
2022/03/19 12:07:40;;;;;;;16.00;13.00;;;12.30;72.30;;;;;;10501860;28;20246;-82
2022/03/19 12:12:43;;;;;;;15.90;12.60;;;12.30;73.80;;;;;;10508766;28;20198;-82
2022/03/19 12:17:46;;;;;;;16.03;13.30;;;12.20;74.10;;;;;;10493914;28;20300;-82
2022/03/19 12:22:49;;;;;;;15.17;12.90;;;12.20;72.50;;;;;;10503984;28;20176;-82
2022/03/19 12:27:53;;;;;;;15.27;12.33;;;12.30;70.70;;;;;;10488542;28;20267;-82
2022/03/19 12:32:58;;;;;;;13.40;11.80;;;12.20;68.60;;;;;;10496315;28;20304;-82
2022/03/19 12:38:00;;;;;;;13.50;11.47;;;12.20;66.30;;;;;;10486380;28;20243;-82
2022/03/19 12:43:02;;;;;;;14.10;11.90;;;12.10;73.00;;;;;;10516155;28;20204;-82
2022/03/19 12:48:13;;;;;;;14.40;11.80;;;12.20;73.00;;;;;;10484473;28;20253;-82
2022/03/19 12:53:16;;;;;;;15.00;10.87;;;12.60;72.50;;;;;;10483659;28;20193;-82
2022/03/19 12:58:18;;;;;;;11.07;9.87;;;12.80;68.90;;;;;;10473433;28;20229;-82
2022/03/19 13:03:31;;;;;;;11.90;10.23;;;12.70;65.70;;;;;;10459606;28;20251;-82
2022/03/19 13:08:44;;;;;;;12.80;10.67;;;12.50;63.90;;;;;;10478377;28;20228;-82
2022/03/19 13:13:48;;;;;;;11.57;10.37;;;12.40;63.50;;;;;;10449279;28;20190;-82
2022/03/19 13:18:59;;;;;;;10.90;9.40;;;12.30;68.10;;;;;;10455301;28;20586;-81
2022/03/19 13:24:03;;;;;;;10.63;9.60;;;12.30;69.40;;;;;;10463408;28;20213;-81
2022/03/19 13:29:07;;;;;;;13.33;9.20;;;12.40;67.50;;;;;;10479024;28;20224;-81
2022/03/19 13:34:18;;;;;;;8.00;6.80;;;12.70;66.20;;;;;;10501379;28;20347;-82
2022/03/19 13:39:22;;;;;;;8.87;6.97;;;12.60;68.30;;;;;;10496190;28;20211;-82
2022/03/19 13:44:29;;;;;;;7.60;6.80;;;12.70;66.10;;;;;;10498326;28;20209;-82
2022/03/19 13:49:36;;;;;;;9.17;7.13;;;12.70;64.60;;;;;;10493735;28;20223;-82
2022/03/19 13:54:45;;;;;;;9.33;7.63;;;12.80;63.50;;;;;;10508016;28;20247;-82
2022/03/19 13:59:47;;;;;;;8.37;6.80;;;12.90;64.50;;;;;;10476988;28;20573;-81
2022/03/19 14:04:51;;;;;;;6.70;6.10;;;12.90;65.60;;;;;;10493902;28;20232;-82
2022/03/19 14:09:53;;;;;;;7.97;6.20;;;12.70;60.90;;;;;;10471677;28;20208;-82
2022/03/19 14:14:59;;;;;;;6.80;6.20;;;12.40;61.40;;;;;;10504971;28;20208;-81
2022/03/19 14:20:03;;;;;;;9.40;6.53;;;12.40;59.30;;;;;;10500695;28;20200;-82
2022/03/19 14:25:06;;;;;;;7.13;5.87;;;12.50;58.60;;;;;;10488359;28;20233;-82
2022/03/19 14:30:09;;;;;;;6.30;5.53;;;12.60;59.00;;;;;;10469599;28;20208;-82
2022/03/19 14:35:44;;;;;;;6.37;5.33;;;12.50;60.90;;;;;;10480446;28;20583;-81
2022/03/19 14:40:50;;;;;;;6.30;5.00;;;12.50;60.80;;;;;;10481307;28;20234;-82
2022/03/19 14:45:53;;;;;;;5.40;4.90;;;12.40;59.10;;;;;;10498868;28;20582;-82
2022/03/19 14:50:57;;;;;;;5.30;4.50;;;12.30;65.60;;;;;;10495670;28;20561;-82
2022/03/19 14:56:01;;;;;;;5.10;4.70;;;12.20;65.60;;;;;;10479438;28;20216;-82
2022/03/19 15:01:03;;;;;;;4.60;3.93;;;12.10;62.30;;;;;;10495867;28;20243;-81
2022/03/19 15:06:05;;;;;;;5.63;5.03;;;12.10;60.00;;;;;;10492727;28;20259;-82
2022/03/19 15:11:09;;;;;;;6.07;4.97;;;12.10;64.80;;;;;;10497923;28;20279;-82
2022/03/19 15:16:13;;;;;;;9.40;4.80;;;12.30;61.30;;;;;;10491230;28;20700;-81
2022/03/19 15:21:16;;;;;;;6.00;4.73;;;12.60;56.80;;;;;;10464683;28;20322;-82
2022/03/19 15:26:19;;;;;;;5.13;3.87;;;12.70;56.90;;;;;;10478061;28;20275;-82
2022/03/19 15:31:21;;;;;;;4.00;3.60;;;12.70;59.40;;;;;;10470597;28;20201;-82
2022/03/19 15:36:32;;;;;;;4.97;4.47;;;12.70;60.20;;;;;;10466771;28;20304;-82
2022/03/19 15:41:35;;;;;;;7.13;5.10;;;12.80;58.60;;;;;;10494258;28;20200;-81
2022/03/19 15:46:37;;;;;;;11.03;5.37;;;12.70;62.00;;;;;;10475939;28;20228;-82
2022/03/19 15:51:39;;;;;;;6.40;5.70;;;12.50;67.70;;;;;;10493849;28;20743;-82
2022/03/19 15:56:43;;;;;;;6.27;5.47;;;12.40;69.10;;;;;;10480266;28;20239;-82
2022/03/19 16:01:45;;;;;;;6.13;5.53;;;12.20;70.20;;;;;;10465109;28;20242;-82
2022/03/19 16:06:47;;;;;;;6.07;5.37;;;12.00;73.50;;;;;;10483395;28;20251;-82
2022/03/19 16:11:51;;;;;;;7.63;6.20;;;11.80;73.10;;;;;;10486791;28;20258;-81
2022/03/19 16:16:53;;;;;;;6.00;5.30;;;11.50;71.90;;;;;;10478386;28;20278;-82
2022/03/19 16:21:56;;;;;;;6.10;5.50;;;11.30;72.50;;;;;;10463799;28;20582;-82
2022/03/19 16:26:59;;;;;;;6.60;5.53;;;11.20;73.10;;;;;;10486938;28;20231;-81
2022/03/19 16:32:02;;;;;;;8.30;5.60;;;11.10;74.30;;;;;;10483706;28;20197;-81
2022/03/19 16:37:04;;;;;;;6.20;5.70;;;11.00;72.70;;;;;;10477685;28;20240;-82
2022/03/19 16:42:08;;;;;;;5.23;4.77;;;10.90;74.40;;;;;;10484342;28;20228;-81
2022/03/19 16:47:10;;;;;;;5.40;4.90;;;10.90;72.00;;;;;;10444634;28;20726;-81
2022/03/19 16:52:13;;;;;;;9.03;7.03;;;10.80;76.10;;;;;;10472814;28;20204;-81
2022/03/19 16:57:16;;;;;;;6.83;6.13;;;10.80;77.90;;;;;;10466902;28;20217;-81
2022/03/19 17:02:18;;;;;;;8.07;7.27;;;10.90;78.20;;;;;;10464048;28;20510;-81
2022/03/19 17:07:21;;;;;;;6.80;5.97;;;10.80;77.80;;;;;;10443621;28;20530;-82
2022/03/19 17:12:24;;;;;;;7.40;6.70;;;10.70;78.50;;;;;;10465183;28;20216;-81
2022/03/19 17:17:31;;;;;;;8.67;7.83;;;10.60;80.50;;;;;;10470766;28;20699;-81
2022/03/19 17:22:33;;;;;;;8.93;7.90;;;10.50;79.10;;;;;;10475004;28;20201;-81
2022/03/19 17:27:37;;;;;;;9.63;8.70;;;10.30;82.60;;;;;;10480710;28;20274;-81
2022/03/19 17:32:40;;;;;;;9.77;8.87;;;10.30;83.90;;;;;;10467656;28;20194;-82
2022/03/19 17:37:42;;;;;;;9.40;8.50;;;10.30;84.00;;;;;;10470041;28;20232;-81
2022/03/19 17:42:46;;;;;;;9.10;8.30;;;10.30;81.70;;;;;;10464337;28;20244;-81
2022/03/19 17:47:48;;;;;;;11.97;9.87;;;10.20;84.00;;;;;;10459632;28;20260;-82
2022/03/19 17:52:50;;;;;;;14.20;11.60;;;10.10;83.70;;;;;;10488244;28;20319;-80
2022/03/19 17:57:54;;;;;;;12.37;11.07;;;10.10;81.10;;;;;;10497295;28;20235;-81
2022/03/19 18:02:57;;;;;;;13.27;11.97;;;9.90;81.70;;;;;;10468018;28;20212;-80
2022/03/19 18:07:59;;;;;;;13.93;12.50;;;9.80;85.70;;;;;;10479189;28;20220;-80
2022/03/19 18:13:03;;;;;;;13.37;12.10;;;9.80;82.80;;;;;;10495262;28;20192;-79
2022/03/19 18:18:05;;;;;;;13.33;11.87;;;9.70;85.80;;;;;;10491078;28;20702;-80
2022/03/19 18:23:07;;;;;;;15.33;12.80;;;9.60;86.50;;;;;;10486682;28;20196;-81
2022/03/19 18:28:11;;;;;;;12.90;11.70;;;9.70;86.50;;;;;;10471613;28;20220;-81
2022/03/19 18:33:13;;;;;;;14.13;12.73;;;9.60;85.50;;;;;;10487304;28;20331;-81
2022/03/19 18:38:15;;;;;;;13.47;12.07;;;9.50;86.30;;;;;;10491933;28;20234;-81
2022/03/19 18:43:19;;;;;;;48.93;38.93;;;9.50;85.90;;;;;;10494803;28;20287;-81
2022/03/19 18:48:21;;;;;;;15.23;13.03;;;9.50;88.90;;;;;;10490247;28;20227;-81
2022/03/19 18:53:23;;;;;;;16.10;13.43;;;9.50;87.20;;;;;;10487617;28;20200;-81
2022/03/19 18:58:27;;;;;;;18.00;14.40;;;9.40;88.30;;;;;;10483424;28;20316;-82
2022/03/19 19:03:29;;;;;;;14.57;13.10;;;9.40;89.60;;;;;;10515878;28;20225;-81
2022/03/19 19:08:34;;;;;;;15.73;13.50;;;9.40;88.30;;;;;;10464483;28;20228;-82
2022/03/19 19:13:37;;;;;;;15.10;13.60;;;9.40;89.50;;;;;;10474839;28;20225;-81
2022/03/19 19:18:41;;;;;;;15.77;14.20;;;9.40;90.10;;;;;;10488793;28;20250;-81
2022/03/19 19:23:43;;;;;;;16.30;14.60;;;9.40;89.70;;;;;;10484022;28;20224;-81
2022/03/19 19:28:46;;;;;;;15.37;13.77;;;9.50;89.70;;;;;;10485046;28;20228;-81
2022/03/19 19:33:49;;;;;;;15.67;14.07;;;9.50;89.00;;;;;;10477446;28;20268;-81
2022/03/19 19:38:51;;;;;;;18.03;15.63;;;9.40;90.00;;;;;;10488688;28;20259;-82
2022/03/19 19:43:54;;;;;;;15.77;14.20;;;9.40;89.60;;;;;;10481341;28;20525;-81
2022/03/19 19:48:56;;;;;;;17.47;15.67;;;9.40;90.30;;;;;;10490835;28;20335;-82
2022/03/19 19:53:59;;;;;;;16.70;15.20;;;9.30;90.60;;;;;;10504706;28;20189;-81
2022/03/19 19:59:02;;;;;;;18.90;15.80;;;9.30;90.30;;;;;;10516793;28;20407;-81
2022/03/19 20:04:04;;;;;;;20.80;16.70;;;9.30;90.00;;;;;;10513307;28;20302;-81
2022/03/19 20:09:07;;;;;;;17.70;16.00;;;9.30;90.30;;;;;;10484411;28;20233;-82
2022/03/19 20:14:10;;;;;;;20.07;18.00;;;9.20;88.70;;;;;;10465707;28;20212;-81
2022/03/19 20:19:14;;;;;;;20.60;18.13;;;9.10;89.40;;;;;;10467115;28;20216;-81
2022/03/19 20:24:18;;;;;;;18.87;17.07;;;9.00;90.10;;;;;;10493197;28;20276;-81
2022/03/19 20:29:22;;;;;;;21.53;17.67;;;8.90;90.90;;;;;;10486831;28;20225;-81
2022/03/19 20:34:24;;;;;;;21.17;18.87;;;8.90;89.60;;;;;;10487612;28;20201;-81
2022/03/19 20:39:26;;;;;;;21.03;18.83;;;8.80;89.70;;;;;;10499492;28;20204;-81
2022/03/19 20:44:31;;;;;;;19.83;17.73;;;8.70;90.30;;;;;;10510966;28;20201;-81
2022/03/19 20:54:53;;;;;;;24.00;20.63;;;8.40;90.80;;;;;;10514287;22;20307;-82
2022/03/19 20:59:57;;;;;;;21.27;19.10;;;8.30;90.00;;;;;;10466927;28;20196;-82
2022/03/19 21:04:59;;;;;;;23.80;20.17;;;8.20;89.90;;;;;;10455090;28;20195;-80
2022/03/19 21:10:01;;;;;;;23.10;20.63;;;8.20;90.00;;;;;;10441804;28;20193;-80
2022/03/19 21:15:05;;;;;;;22.80;20.40;;;8.10;91.20;;;;;;10443676;28;20243;-81
2022/03/19 21:20:10;;;;;;;24.70;22.10;;;8.10;91.00;;;;;;10460697;28;20657;-82
2022/03/19 21:25:13;;;;;;;24.40;21.87;;;8.10;90.40;;;;;;10470585;28;20556;-84
2022/03/19 21:30:18;;;;;;;24.77;22.10;;;8.10;90.20;;;;;;10472388;28;20194;-82
2022/03/19 21:35:22;;;;;;;25.37;22.07;;;8.10;90.60;;;;;;10435558;28;20220;-82
2022/03/19 21:45:48;;;;;;;22.70;20.30;;;8.10;90.50;;;;;;10463762;28;20315;-82
2022/03/19 21:50:50;;;;;;;23.27;20.80;;;8.20;90.10;;;;;;10469702;28;20198;-81
2022/03/19 21:55:52;;;;;;;26.37;23.50;;;8.10;90.40;;;;;;10441719;28;20225;-81
2022/03/19 22:00:57;;;;;;;25.43;22.67;;;8.20;89.10;;;;;;10470966;28;20224;-81
2022/03/19 22:05:59;;;;;;;23.23;20.83;;;8.20;88.50;;;;;;10456288;28;20304;-81
2022/03/19 22:11:03;;;;;;;24.47;21.87;;;8.10;89.60;;;;;;10449128;28;20235;-81
2022/03/19 22:16:06;;;;;;;25.47;22.67;;;8.10;87.10;;;;;;10448925;28;20205;-81
2022/03/19 22:21:09;;;;;;;26.70;22.70;;;7.90;88.30;;;;;;10471921;28;20193;-81
2022/03/19 22:26:11;;;;;;;21.97;19.67;;;7.80;89.20;;;;;;10472134;28;20708;-81
2022/03/19 22:31:16;;;;;;;22.83;20.53;;;7.70;88.90;;;;;;10466160;28;20265;-81
2022/03/19 22:36:20;;;;;;;22.03;19.60;;;7.70;87.60;;;;;;10462382;28;20292;-82
2022/03/19 22:41:22;;;;;;;22.00;19.77;;;7.60;86.80;;;;;;10453347;28;20197;-82
2022/03/19 22:46:26;;;;;;;23.73;21.23;;;7.40;86.90;;;;;;10469346;28;20295;-82
2022/03/19 22:51:28;;;;;;;22.23;19.83;;;7.30;87.20;;;;;;10466913;28;20193;-81
2022/03/19 22:56:30;;;;;;;22.30;20.10;;;7.20;88.00;;;;;;10462268;28;20271;-82
2022/03/19 23:01:33;;;;;;;22.70;20.40;;;7.10;88.30;;;;;;10439008;28;20193;-81
2022/03/19 23:06:36;;;;;;;24.43;21.90;;;7.00;88.30;;;;;;10460964;28;20228;-83
2022/03/19 23:11:40;;;;;;;24.67;21.67;;;6.90;87.90;;;;;;10445955;28;20213;-82
2022/03/19 23:16:43;;;;;;;23.73;21.13;;;6.90;88.50;;;;;;10462774;28;20209;-81
2022/03/19 23:21:46;;;;;;;23.80;21.20;;;6.90;87.40;;;;;;10453088;28;20209;-81
2022/03/19 23:26:48;;;;;;;23.70;21.17;;;6.90;87.70;;;;;;10450263;28;20325;-82
2022/03/19 23:31:51;;;;;;;25.67;20.37;;;6.80;87.10;;;;;;10460611;28;20206;-82
2022/03/19 23:36:53;;;;;;;20.37;18.13;;;6.80;88.50;;;;;;10453632;28;20247;-82
2022/03/19 23:41:56;;;;;;;22.40;20.00;;;6.80;87.10;;;;;;10450923;28;20271;-82
2022/03/19 23:46:59;;;;;;;20.63;18.60;;;6.80;86.90;;;;;;10443927;28;20296;-81
2022/03/19 23:52:01;;;;;;;19.43;17.43;;;6.80;88.10;;;;;;10434514;28;20585;-81
2022/03/19 23:57:03;;;;;;;23.73;20.37;;;6.80;87.30;;;;;;10449925;28;20251;-81
